sensor_id;sensor_type;location;lat;lon;timestamp;P1;durP1;ratioP1;P2;durP2;ratioP2
10293;SDS011;5192;50.328;7.610;2024-01-07T00:00:51;19.30;;;10.37;;
10293;SDS011;5192;50.328;7.610;2024-01-07T00:03:18;19.10;;;10.37;;
10293;SDS011;5192;50.328;7.610;2024-01-07T00:05:45;22.77;;;11.30;;
10293;SDS011;5192;50.328;7.610;2024-01-07T00:08:13;19.73;;;10.73;;
10293;SDS011;5192;50.328;7.610;2024-01-07T00:10:43;23.73;;;11.90;;
10293;SDS011;5192;50.328;7.610;2024-01-07T00:13:12;23.27;;;11.27;;
10293;SDS011;5192;50.328;7.610;2024-01-07T00:15:39;20.90;;;11.87;;
10293;SDS011;5192;50.328;7.610;2024-01-07T00:18:06;21.63;;;11.27;;
10293;SDS011;5192;50.328;7.610;2024-01-07T00:20:34;20.47;;;11.40;;
10293;SDS011;5192;50.328;7.610;2024-01-07T00:23:00;18.93;;;9.90;;
10293;SDS011;5192;50.328;7.610;2024-01-07T00:25:27;21.47;;;10.93;;
10293;SDS011;5192;50.328;7.610;2024-01-07T00:27:55;21.50;;;11.77;;
10293;SDS011;5192;50.328;7.610;2024-01-07T00:30:22;21.70;;;11.50;;
10293;SDS011;5192;50.328;7.610;2024-01-07T00:32:50;20.27;;;11.27;;
10293;SDS011;5192;50.328;7.610;2024-01-07T00:35:18;22.07;;;11.80;;
10293;SDS011;5192;50.328;7.610;2024-01-07T00:37:45;19.67;;;11.50;;
10293;SDS011;5192;50.328;7.610;2024-01-07T00:40:13;22.23;;;12.20;;
10293;SDS011;5192;50.328;7.610;2024-01-07T00:42:39;20.63;;;11.37;;
10293;SDS011;5192;50.328;7.610;2024-01-07T00:45:05;24.20;;;13.13;;
10293;SDS011;5192;50.328;7.610;2024-01-07T00:47:32;21.63;;;11.83;;
10293;SDS011;5192;50.328;7.610;2024-01-07T00:49:59;22.07;;;11.47;;
10293;SDS011;5192;50.328;7.610;2024-01-07T00:52:26;22.40;;;12.33;;
10293;SDS011;5192;50.328;7.610;2024-01-07T00:54:53;22.87;;;11.47;;
10293;SDS011;5192;50.328;7.610;2024-01-07T00:57:20;23.10;;;12.17;;
10293;SDS011;5192;50.328;7.610;2024-01-07T00:59:46;23.17;;;11.97;;
10293;SDS011;5192;50.328;7.610;2024-01-07T01:02:16;22.67;;;12.27;;
10293;SDS011;5192;50.328;7.610;2024-01-07T01:04:45;21.97;;;12.47;;
10293;SDS011;5192;50.328;7.610;2024-01-07T01:07:11;20.97;;;11.17;;
10293;SDS011;5192;50.328;7.610;2024-01-07T01:09:38;20.93;;;11.43;;
10293;SDS011;5192;50.328;7.610;2024-01-07T01:12:06;24.90;;;12.50;;
10293;SDS011;5192;50.328;7.610;2024-01-07T01:14:33;25.53;;;12.70;;
10293;SDS011;5192;50.328;7.610;2024-01-07T01:17:00;23.73;;;11.40;;
10293;SDS011;5192;50.328;7.610;2024-01-07T01:19:28;23.30;;;12.17;;
10293;SDS011;5192;50.328;7.610;2024-01-07T01:21:56;21.97;;;11.73;;
10293;SDS011;5192;50.328;7.610;2024-01-07T01:24:23;24.67;;;12.47;;
10293;SDS011;5192;50.328;7.610;2024-01-07T01:26:49;23.17;;;12.37;;
10293;SDS011;5192;50.328;7.610;2024-01-07T01:29:17;24.90;;;12.63;;
10293;SDS011;5192;50.328;7.610;2024-01-07T01:31:45;23.77;;;12.37;;
10293;SDS011;5192;50.328;7.610;2024-01-07T01:34:11;20.33;;;11.40;;
10293;SDS011;5192;50.328;7.610;2024-01-07T01:36:40;24.70;;;13.00;;
10293;SDS011;5192;50.328;7.610;2024-01-07T01:39:07;25.33;;;14.13;;
10293;SDS011;5192;50.328;7.610;2024-01-07T01:41:34;28.50;;;13.57;;
10293;SDS011;5192;50.328;7.610;2024-01-07T01:44:00;25.57;;;12.13;;
10293;SDS011;5192;50.328;7.610;2024-01-07T01:46:28;26.40;;;12.10;;
10293;SDS011;5192;50.328;7.610;2024-01-07T01:48:58;25.13;;;12.73;;
10293;SDS011;5192;50.328;7.610;2024-01-07T01:51:26;26.00;;;11.40;;
10293;SDS011;5192;50.328;7.610;2024-01-07T01:53:53;23.13;;;11.80;;
10293;SDS011;5192;50.328;7.610;2024-01-07T01:56:23;30.63;;;13.83;;
10293;SDS011;5192;50.328;7.610;2024-01-07T01:58:51;23.53;;;10.83;;
10293;SDS011;5192;50.328;7.610;2024-01-07T02:01:17;25.30;;;11.97;;
10293;SDS011;5192;50.328;7.610;2024-01-07T02:03:43;25.93;;;12.77;;
10293;SDS011;5192;50.328;7.610;2024-01-07T02:06:12;25.73;;;12.10;;
10293;SDS011;5192;50.328;7.610;2024-01-07T02:08:39;26.77;;;12.03;;
10293;SDS011;5192;50.328;7.610;2024-01-07T02:11:16;29.87;;;13.60;;
10293;SDS011;5192;50.328;7.610;2024-01-07T02:13:44;23.93;;;11.47;;
10293;SDS011;5192;50.328;7.610;2024-01-07T02:16:13;26.70;;;12.93;;
10293;SDS011;5192;50.328;7.610;2024-01-07T02:18:44;24.43;;;12.17;;
10293;SDS011;5192;50.328;7.610;2024-01-07T02:21:12;22.33;;;11.40;;
10293;SDS011;5192;50.328;7.610;2024-01-07T02:23:42;28.10;;;12.97;;
10293;SDS011;5192;50.328;7.610;2024-01-07T02:26:10;27.33;;;12.73;;
10293;SDS011;5192;50.328;7.610;2024-01-07T02:28:38;24.37;;;12.60;;
10293;SDS011;5192;50.328;7.610;2024-01-07T02:31:05;25.20;;;12.53;;
10293;SDS011;5192;50.328;7.610;2024-01-07T02:33:32;24.50;;;12.17;;
10293;SDS011;5192;50.328;7.610;2024-01-07T02:35:59;22.07;;;10.60;;
10293;SDS011;5192;50.328;7.610;2024-01-07T02:38:28;25.57;;;14.07;;
10293;SDS011;5192;50.328;7.610;2024-01-07T02:40:54;27.93;;;12.87;;
10293;SDS011;5192;50.328;7.610;2024-01-07T02:43:20;26.80;;;12.73;;
10293;SDS011;5192;50.328;7.610;2024-01-07T02:45:46;27.37;;;12.40;;
10293;SDS011;5192;50.328;7.610;2024-01-07T02:48:15;25.87;;;12.30;;
10293;SDS011;5192;50.328;7.610;2024-01-07T02:50:42;27.17;;;12.10;;
10293;SDS011;5192;50.328;7.610;2024-01-07T02:53:08;26.23;;;12.83;;
10293;SDS011;5192;50.328;7.610;2024-01-07T02:55:35;26.97;;;13.30;;
10293;SDS011;5192;50.328;7.610;2024-01-07T02:58:04;23.57;;;11.67;;
10293;SDS011;5192;50.328;7.610;2024-01-07T03:00:31;26.77;;;12.10;;
10293;SDS011;5192;50.328;7.610;2024-01-07T03:03:00;27.03;;;12.83;;
10293;SDS011;5192;50.328;7.610;2024-01-07T03:05:27;23.90;;;11.87;;
10293;SDS011;5192;50.328;7.610;2024-01-07T03:07:58;28.33;;;12.50;;
10293;SDS011;5192;50.328;7.610;2024-01-07T03:10:26;24.53;;;12.03;;
10293;SDS011;5192;50.328;7.610;2024-01-07T03:12:52;23.20;;;12.23;;
10293;SDS011;5192;50.328;7.610;2024-01-07T03:15:19;25.30;;;12.20;;
10293;SDS011;5192;50.328;7.610;2024-01-07T03:17:48;23.07;;;11.60;;
10293;SDS011;5192;50.328;7.610;2024-01-07T03:20:15;24.83;;;12.57;;
10293;SDS011;5192;50.328;7.610;2024-01-07T03:22:44;26.83;;;13.07;;
10293;SDS011;5192;50.328;7.610;2024-01-07T03:25:11;27.23;;;12.30;;
10293;SDS011;5192;50.328;7.610;2024-01-07T03:27:39;24.33;;;12.20;;
10293;SDS011;5192;50.328;7.610;2024-01-07T03:30:07;25.17;;;12.47;;
10293;SDS011;5192;50.328;7.610;2024-01-07T03:32:36;26.83;;;12.17;;
10293;SDS011;5192;50.328;7.610;2024-01-07T03:35:04;25.90;;;12.10;;
10293;SDS011;5192;50.328;7.610;2024-01-07T03:37:35;24.23;;;12.40;;
10293;SDS011;5192;50.328;7.610;2024-01-07T03:40:02;22.80;;;12.20;;
10293;SDS011;5192;50.328;7.610;2024-01-07T03:42:29;20.77;;;10.73;;
10293;SDS011;5192;50.328;7.610;2024-01-07T03:44:56;20.77;;;10.63;;
10293;SDS011;5192;50.328;7.610;2024-01-07T03:47:22;22.57;;;11.43;;
10293;SDS011;5192;50.328;7.610;2024-01-07T03:49:49;26.00;;;12.10;;
10293;SDS011;5192;50.328;7.610;2024-01-07T03:52:17;22.63;;;12.03;;
10293;SDS011;5192;50.328;7.610;2024-01-07T03:54:44;24.17;;;12.13;;
10293;SDS011;5192;50.328;7.610;2024-01-07T03:57:11;24.63;;;12.07;;
10293;SDS011;5192;50.328;7.610;2024-01-07T03:59:39;24.30;;;12.13;;
10293;SDS011;5192;50.328;7.610;2024-01-07T04:02:06;22.87;;;11.67;;
10293;SDS011;5192;50.328;7.610;2024-01-07T04:04:34;23.03;;;11.67;;
10293;SDS011;5192;50.328;7.610;2024-01-07T04:07:02;20.67;;;10.60;;
10293;SDS011;5192;50.328;7.610;2024-01-07T04:09:31;19.73;;;11.10;;
10293;SDS011;5192;50.328;7.610;2024-01-07T04:11:58;24.73;;;12.10;;
10293;SDS011;5192;50.328;7.610;2024-01-07T04:14:24;18.97;;;10.77;;
10293;SDS011;5192;50.328;7.610;2024-01-07T04:16:54;24.50;;;10.53;;
10293;SDS011;5192;50.328;7.610;2024-01-07T04:19:22;20.90;;;10.37;;
10293;SDS011;5192;50.328;7.610;2024-01-07T04:21:49;19.07;;;9.70;;
10293;SDS011;5192;50.328;7.610;2024-01-07T04:24:15;19.00;;;10.40;;
10293;SDS011;5192;50.328;7.610;2024-01-07T04:26:41;17.70;;;9.10;;
10293;SDS011;5192;50.328;7.610;2024-01-07T04:29:07;18.10;;;9.43;;
10293;SDS011;5192;50.328;7.610;2024-01-07T04:31:34;16.57;;;9.03;;
10293;SDS011;5192;50.328;7.610;2024-01-07T04:34:00;18.63;;;9.20;;
10293;SDS011;5192;50.328;7.610;2024-01-07T04:36:29;19.53;;;9.67;;
10293;SDS011;5192;50.328;7.610;2024-01-07T04:38:56;17.90;;;9.20;;
10293;SDS011;5192;50.328;7.610;2024-01-07T04:41:26;19.43;;;9.40;;
10293;SDS011;5192;50.328;7.610;2024-01-07T04:43:52;15.27;;;8.57;;
10293;SDS011;5192;50.328;7.610;2024-01-07T04:46:24;16.13;;;8.60;;
10293;SDS011;5192;50.328;7.610;2024-01-07T04:48:51;14.70;;;8.50;;
10293;SDS011;5192;50.328;7.610;2024-01-07T04:51:18;18.07;;;8.77;;
10293;SDS011;5192;50.328;7.610;2024-01-07T04:53:46;16.83;;;8.40;;
10293;SDS011;5192;50.328;7.610;2024-01-07T04:56:14;15.97;;;8.47;;
10293;SDS011;5192;50.328;7.610;2024-01-07T04:58:41;16.07;;;8.50;;
10293;SDS011;5192;50.328;7.610;2024-01-07T05:01:09;13.03;;;7.73;;
10293;SDS011;5192;50.328;7.610;2024-01-07T05:03:36;14.60;;;7.17;;
10293;SDS011;5192;50.328;7.610;2024-01-07T05:06:05;13.33;;;7.80;;
10293;SDS011;5192;50.328;7.610;2024-01-07T05:08:32;12.63;;;7.13;;
10293;SDS011;5192;50.328;7.610;2024-01-07T05:11:00;10.50;;;6.30;;
10293;SDS011;5192;50.328;7.610;2024-01-07T05:13:26;10.77;;;6.23;;
10293;SDS011;5192;50.328;7.610;2024-01-07T05:15:52;10.50;;;6.60;;
10293;SDS011;5192;50.328;7.610;2024-01-07T05:18:25;10.47;;;6.10;;
10293;SDS011;5192;50.328;7.610;2024-01-07T05:20:51;12.23;;;6.43;;
10293;SDS011;5192;50.328;7.610;2024-01-07T05:23:18;9.17;;;6.10;;
10293;SDS011;5192;50.328;7.610;2024-01-07T05:25:46;11.63;;;6.80;;
10293;SDS011;5192;50.328;7.610;2024-01-07T05:28:12;10.67;;;6.50;;
10293;SDS011;5192;50.328;7.610;2024-01-07T05:30:40;10.07;;;5.97;;
10293;SDS011;5192;50.328;7.610;2024-01-07T05:33:06;10.27;;;6.17;;
10293;SDS011;5192;50.328;7.610;2024-01-07T05:35:34;10.00;;;6.20;;
10293;SDS011;5192;50.328;7.610;2024-01-07T05:38:02;11.97;;;6.00;;
10293;SDS011;5192;50.328;7.610;2024-01-07T05:40:29;9.70;;;6.23;;
10293;SDS011;5192;50.328;7.610;2024-01-07T05:42:56;10.60;;;6.17;;
10293;SDS011;5192;50.328;7.610;2024-01-07T05:45:23;10.83;;;6.57;;
10293;SDS011;5192;50.328;7.610;2024-01-07T05:47:50;8.97;;;5.07;;
10293;SDS011;5192;50.328;7.610;2024-01-07T05:50:17;9.53;;;5.53;;
10293;SDS011;5192;50.328;7.610;2024-01-07T05:52:47;10.10;;;6.23;;
10293;SDS011;5192;50.328;7.610;2024-01-07T05:55:14;10.20;;;5.73;;
10293;SDS011;5192;50.328;7.610;2024-01-07T05:57:42;9.60;;;6.27;;
10293;SDS011;5192;50.328;7.610;2024-01-07T06:00:11;10.23;;;5.63;;
10293;SDS011;5192;50.328;7.610;2024-01-07T06:02:39;10.07;;;5.80;;
10293;SDS011;5192;50.328;7.610;2024-01-07T06:05:06;7.93;;;5.70;;
10293;SDS011;5192;50.328;7.610;2024-01-07T06:07:34;9.90;;;6.03;;
10293;SDS011;5192;50.328;7.610;2024-01-07T06:10:02;9.10;;;5.87;;
10293;SDS011;5192;50.328;7.610;2024-01-07T06:12:32;8.10;;;5.73;;
10293;SDS011;5192;50.328;7.610;2024-01-07T06:14:58;8.37;;;5.50;;
10293;SDS011;5192;50.328;7.610;2024-01-07T06:17:27;8.90;;;5.63;;
10293;SDS011;5192;50.328;7.610;2024-01-07T06:19:53;9.43;;;5.23;;
10293;SDS011;5192;50.328;7.610;2024-01-07T06:22:20;9.47;;;5.53;;
10293;SDS011;5192;50.328;7.610;2024-01-07T06:24:47;10.93;;;5.83;;
10293;SDS011;5192;50.328;7.610;2024-01-07T06:27:16;8.73;;;5.20;;
10293;SDS011;5192;50.328;7.610;2024-01-07T06:29:43;7.27;;;5.20;;
10293;SDS011;5192;50.328;7.610;2024-01-07T06:32:13;8.77;;;4.93;;
10293;SDS011;5192;50.328;7.610;2024-01-07T06:34:40;7.97;;;5.27;;
10293;SDS011;5192;50.328;7.610;2024-01-07T06:37:07;7.47;;;5.13;;
10293;SDS011;5192;50.328;7.610;2024-01-07T06:39:35;7.70;;;4.83;;
10293;SDS011;5192;50.328;7.610;2024-01-07T06:42:04;6.23;;;4.67;;
10293;SDS011;5192;50.328;7.610;2024-01-07T06:44:30;7.37;;;4.77;;
10293;SDS011;5192;50.328;7.610;2024-01-07T06:46:58;6.87;;;4.43;;
10293;SDS011;5192;50.328;7.610;2024-01-07T06:49:24;7.53;;;4.77;;
10293;SDS011;5192;50.328;7.610;2024-01-07T06:51:52;6.57;;;4.50;;
10293;SDS011;5192;50.328;7.610;2024-01-07T06:54:18;7.73;;;4.90;;
10293;SDS011;5192;50.328;7.610;2024-01-07T06:56:45;7.50;;;5.07;;
10293;SDS011;5192;50.328;7.610;2024-01-07T06:59:12;8.03;;;4.70;;
10293;SDS011;5192;50.328;7.610;2024-01-07T07:01:38;9.13;;;5.03;;
10293;SDS011;5192;50.328;7.610;2024-01-07T07:04:04;6.70;;;4.63;;
10293;SDS011;5192;50.328;7.610;2024-01-07T07:06:31;5.93;;;4.23;;
10293;SDS011;5192;50.328;7.610;2024-01-07T07:08:59;8.40;;;4.80;;
10293;SDS011;5192;50.328;7.610;2024-01-07T07:11:26;6.47;;;4.93;;
10293;SDS011;5192;50.328;7.610;2024-01-07T07:13:53;6.83;;;4.77;;
10293;SDS011;5192;50.328;7.610;2024-01-07T07:16:20;7.93;;;4.87;;
10293;SDS011;5192;50.328;7.610;2024-01-07T07:18:48;7.50;;;4.77;;
10293;SDS011;5192;50.328;7.610;2024-01-07T07:21:13;8.27;;;5.43;;
10293;SDS011;5192;50.328;7.610;2024-01-07T07:23:39;8.87;;;4.93;;
10293;SDS011;5192;50.328;7.610;2024-01-07T07:26:08;8.67;;;5.37;;
10293;SDS011;5192;50.328;7.610;2024-01-07T07:28:35;8.07;;;5.13;;
10293;SDS011;5192;50.328;7.610;2024-01-07T07:31:02;8.60;;;5.70;;
10293;SDS011;5192;50.328;7.610;2024-01-07T07:33:28;9.57;;;5.50;;
10293;SDS011;5192;50.328;7.610;2024-01-07T07:35:56;8.10;;;5.13;;
10293;SDS011;5192;50.328;7.610;2024-01-07T07:38:25;8.40;;;5.90;;
10293;SDS011;5192;50.328;7.610;2024-01-07T07:40:52;8.20;;;5.73;;
10293;SDS011;5192;50.328;7.610;2024-01-07T07:43:19;9.03;;;6.10;;
10293;SDS011;5192;50.328;7.610;2024-01-07T07:45:49;10.10;;;5.93;;
10293;SDS011;5192;50.328;7.610;2024-01-07T07:48:18;9.37;;;5.97;;
10293;SDS011;5192;50.328;7.610;2024-01-07T07:50:46;10.40;;;6.43;;
10293;SDS011;5192;50.328;7.610;2024-01-07T07:53:11;10.17;;;6.37;;
10293;SDS011;5192;50.328;7.610;2024-01-07T07:55:40;10.20;;;6.77;;
10293;SDS011;5192;50.328;7.610;2024-01-07T07:58:07;9.87;;;6.77;;
10293;SDS011;5192;50.328;7.610;2024-01-07T08:00:33;9.83;;;7.07;;
10293;SDS011;5192;50.328;7.610;2024-01-07T08:03:01;10.17;;;6.63;;
10293;SDS011;5192;50.328;7.610;2024-01-07T08:05:29;11.93;;;6.83;;
10293;SDS011;5192;50.328;7.610;2024-01-07T08:07:58;10.90;;;6.57;;
10293;SDS011;5192;50.328;7.610;2024-01-07T08:10:25;9.70;;;6.93;;
10293;SDS011;5192;50.328;7.610;2024-01-07T08:12:53;12.03;;;7.90;;
10293;SDS011;5192;50.328;7.610;2024-01-07T08:15:21;12.30;;;7.33;;
10293;SDS011;5192;50.328;7.610;2024-01-07T08:17:48;11.77;;;7.80;;
10293;SDS011;5192;50.328;7.610;2024-01-07T08:20:17;10.50;;;6.97;;
10293;SDS011;5192;50.328;7.610;2024-01-07T08:22:46;11.00;;;7.57;;
10293;SDS011;5192;50.328;7.610;2024-01-07T08:25:13;13.20;;;7.83;;
10293;SDS011;5192;50.328;7.610;2024-01-07T08:27:42;13.23;;;8.03;;
10293;SDS011;5192;50.328;7.610;2024-01-07T08:30:14;13.40;;;8.40;;
10293;SDS011;5192;50.328;7.610;2024-01-07T08:32:42;12.50;;;7.80;;
10293;SDS011;5192;50.328;7.610;2024-01-07T08:35:09;13.67;;;8.37;;
10293;SDS011;5192;50.328;7.610;2024-01-07T08:37:38;13.20;;;8.47;;
10293;SDS011;5192;50.328;7.610;2024-01-07T08:40:07;15.07;;;8.50;;
10293;SDS011;5192;50.328;7.610;2024-01-07T08:42:35;12.47;;;8.80;;
10293;SDS011;5192;50.328;7.610;2024-01-07T08:45:05;13.37;;;8.23;;
10293;SDS011;5192;50.328;7.610;2024-01-07T08:47:32;12.63;;;8.70;;
10293;SDS011;5192;50.328;7.610;2024-01-07T08:50:03;13.30;;;8.67;;
10293;SDS011;5192;50.328;7.610;2024-01-07T08:52:30;15.27;;;9.20;;
10293;SDS011;5192;50.328;7.610;2024-01-07T08:54:56;12.30;;;8.00;;
10293;SDS011;5192;50.328;7.610;2024-01-07T08:57:24;13.77;;;8.83;;
10293;SDS011;5192;50.328;7.610;2024-01-07T08:59:50;13.33;;;7.63;;
10293;SDS011;5192;50.328;7.610;2024-01-07T09:02:19;13.70;;;8.77;;
10293;SDS011;5192;50.328;7.610;2024-01-07T09:04:45;14.73;;;9.67;;
10293;SDS011;5192;50.328;7.610;2024-01-07T09:07:14;15.67;;;10.50;;
10293;SDS011;5192;50.328;7.610;2024-01-07T09:09:41;14.77;;;9.07;;
10293;SDS011;5192;50.328;7.610;2024-01-07T09:12:07;14.80;;;9.47;;
10293;SDS011;5192;50.328;7.610;2024-01-07T09:14:33;17.20;;;9.60;;
10293;SDS011;5192;50.328;7.610;2024-01-07T09:16:59;17.03;;;9.63;;
10293;SDS011;5192;50.328;7.610;2024-01-07T09:19:25;17.23;;;10.40;;
10293;SDS011;5192;50.328;7.610;2024-01-07T09:21:51;16.13;;;9.50;;
10293;SDS011;5192;50.328;7.610;2024-01-07T09:24:17;16.50;;;9.90;;
10293;SDS011;5192;50.328;7.610;2024-01-07T09:26:43;15.70;;;9.90;;
10293;SDS011;5192;50.328;7.610;2024-01-07T09:29:09;17.27;;;9.70;;
10293;SDS011;5192;50.328;7.610;2024-01-07T09:31:35;15.53;;;9.73;;
10293;SDS011;5192;50.328;7.610;2024-01-07T09:34:01;17.60;;;10.43;;
10293;SDS011;5192;50.328;7.610;2024-01-07T09:36:31;13.57;;;9.27;;
10293;SDS011;5192;50.328;7.610;2024-01-07T09:38:57;13.77;;;9.30;;
10293;SDS011;5192;50.328;7.610;2024-01-07T09:41:23;15.93;;;10.40;;
10293;SDS011;5192;50.328;7.610;2024-01-07T09:43:52;16.57;;;10.43;;
10293;SDS011;5192;50.328;7.610;2024-01-07T09:46:19;18.53;;;10.90;;
10293;SDS011;5192;50.328;7.610;2024-01-07T09:48:46;14.93;;;9.50;;
10293;SDS011;5192;50.328;7.610;2024-01-07T09:51:12;15.83;;;10.23;;
10293;SDS011;5192;50.328;7.610;2024-01-07T09:53:39;14.67;;;9.77;;
10293;SDS011;5192;50.328;7.610;2024-01-07T09:56:12;16.90;;;10.67;;
10293;SDS011;5192;50.328;7.610;2024-01-07T09:58:41;17.50;;;10.43;;
10293;SDS011;5192;50.328;7.610;2024-01-07T10:01:07;16.40;;;10.17;;
10293;SDS011;5192;50.328;7.610;2024-01-07T10:03:33;14.90;;;9.83;;
10293;SDS011;5192;50.328;7.610;2024-01-07T10:06:00;17.97;;;11.13;;
10293;SDS011;5192;50.328;7.610;2024-01-07T10:08:26;15.77;;;10.13;;
10293;SDS011;5192;50.328;7.610;2024-01-07T10:10:52;17.87;;;10.53;;
10293;SDS011;5192;50.328;7.610;2024-01-07T10:13:19;17.37;;;10.93;;
10293;SDS011;5192;50.328;7.610;2024-01-07T10:15:47;17.03;;;10.40;;
10293;SDS011;5192;50.328;7.610;2024-01-07T10:18:13;18.83;;;11.50;;
10293;SDS011;5192;50.328;7.610;2024-01-07T10:20:40;19.47;;;11.17;;
10293;SDS011;5192;50.328;7.610;2024-01-07T10:23:06;15.33;;;9.83;;
10293;SDS011;5192;50.328;7.610;2024-01-07T10:25:33;17.47;;;10.83;;
10293;SDS011;5192;50.328;7.610;2024-01-07T10:28:01;19.00;;;11.43;;
10293;SDS011;5192;50.328;7.610;2024-01-07T10:30:33;17.57;;;10.57;;
10293;SDS011;5192;50.328;7.610;2024-01-07T10:33:00;19.87;;;11.93;;
10293;SDS011;5192;50.328;7.610;2024-01-07T10:35:33;15.17;;;10.50;;
10293;SDS011;5192;50.328;7.610;2024-01-07T10:38:04;19.40;;;11.37;;
10293;SDS011;5192;50.328;7.610;2024-01-07T10:40:30;19.13;;;11.90;;
10293;SDS011;5192;50.328;7.610;2024-01-07T10:43:00;17.60;;;10.97;;
10293;SDS011;5192;50.328;7.610;2024-01-07T10:45:33;20.17;;;11.10;;
10293;SDS011;5192;50.328;7.610;2024-01-07T10:48:02;17.47;;;11.63;;
10293;SDS011;5192;50.328;7.610;2024-01-07T10:50:33;15.97;;;9.60;;
10293;SDS011;5192;50.328;7.610;2024-01-07T10:53:03;15.43;;;9.40;;
10293;SDS011;5192;50.328;7.610;2024-01-07T10:55:35;16.60;;;9.53;;
10293;SDS011;5192;50.328;7.610;2024-01-07T10:58:04;13.30;;;8.90;;
10293;SDS011;5192;50.328;7.610;2024-01-07T11:00:32;13.03;;;9.47;;
10293;SDS011;5192;50.328;7.610;2024-01-07T11:03:21;13.97;;;9.30;;
10293;SDS011;5192;50.328;7.610;2024-01-07T11:06:01;14.13;;;8.77;;
10293;SDS011;5192;50.328;7.610;2024-01-07T11:08:52;11.57;;;8.50;;
10293;SDS011;5192;50.328;7.610;2024-01-07T11:11:21;10.80;;;7.73;;
10293;SDS011;5192;50.328;7.610;2024-01-07T11:13:54;11.07;;;8.03;;
10293;SDS011;5192;50.328;7.610;2024-01-07T11:16:41;12.07;;;8.00;;
10293;SDS011;5192;50.328;7.610;2024-01-07T11:19:13;11.67;;;7.87;;
10293;SDS011;5192;50.328;7.610;2024-01-07T11:21:40;10.63;;;7.67;;
10293;SDS011;5192;50.328;7.610;2024-01-07T11:24:08;12.27;;;7.87;;
10293;SDS011;5192;50.328;7.610;2024-01-07T11:26:34;11.03;;;7.47;;
10293;SDS011;5192;50.328;7.610;2024-01-07T11:29:01;9.60;;;7.17;;
10293;SDS011;5192;50.328;7.610;2024-01-07T11:34:38;10.30;;;7.50;;
10293;SDS011;5192;50.328;7.610;2024-01-07T11:37:00;10.20;;;7.50;;
10293;SDS011;5192;50.328;7.610;2024-01-07T11:39:29;10.87;;;7.77;;
10293;SDS011;5192;50.328;7.610;2024-01-07T11:41:57;9.40;;;7.23;;
10293;SDS011;5192;50.328;7.610;2024-01-07T11:44:26;9.77;;;7.30;;
10293;SDS011;5192;50.328;7.610;2024-01-07T11:46:54;12.73;;;7.90;;
10293;SDS011;5192;50.328;7.610;2024-01-07T11:49:26;11.10;;;7.63;;
10293;SDS011;5192;50.328;7.610;2024-01-07T11:51:54;10.10;;;7.20;;
10293;SDS011;5192;50.328;7.610;2024-01-07T11:54:21;13.53;;;7.80;;
10293;SDS011;5192;50.328;7.610;2024-01-07T11:56:48;11.33;;;6.47;;
10293;SDS011;5192;50.328;7.610;2024-01-07T11:59:20;11.47;;;7.43;;
10293;SDS011;5192;50.328;7.610;2024-01-07T12:01:46;9.23;;;6.63;;
10293;SDS011;5192;50.328;7.610;2024-01-07T12:04:14;10.63;;;7.60;;
10293;SDS011;5192;50.328;7.610;2024-01-07T12:06:42;8.87;;;6.70;;
10293;SDS011;5192;50.328;7.610;2024-01-07T12:09:11;8.83;;;6.20;;
10293;SDS011;5192;50.328;7.610;2024-01-07T12:11:40;9.53;;;6.63;;
10293;SDS011;5192;50.328;7.610;2024-01-07T12:14:07;8.43;;;6.20;;
10293;SDS011;5192;50.328;7.610;2024-01-07T12:16:35;9.17;;;6.27;;
10293;SDS011;5192;50.328;7.610;2024-01-07T12:19:04;8.37;;;6.67;;
10293;SDS011;5192;50.328;7.610;2024-01-07T12:21:33;7.83;;;5.90;;
10293;SDS011;5192;50.328;7.610;2024-01-07T12:23:59;8.23;;;5.87;;
10293;SDS011;5192;50.328;7.610;2024-01-07T12:26:27;10.50;;;6.90;;
10293;SDS011;5192;50.328;7.610;2024-01-07T12:29:00;10.47;;;6.80;;
10293;SDS011;5192;50.328;7.610;2024-01-07T12:31:34;9.17;;;6.37;;
10293;SDS011;5192;50.328;7.610;2024-01-07T12:34:02;8.80;;;6.50;;
10293;SDS011;5192;50.328;7.610;2024-01-07T12:36:31;8.23;;;6.30;;
10293;SDS011;5192;50.328;7.610;2024-01-07T12:38:57;8.77;;;6.50;;
10293;SDS011;5192;50.328;7.610;2024-01-07T12:41:25;8.07;;;6.20;;
10293;SDS011;5192;50.328;7.610;2024-01-07T12:43:52;10.90;;;6.90;;
10293;SDS011;5192;50.328;7.610;2024-01-07T12:46:20;8.00;;;6.73;;
10293;SDS011;5192;50.328;7.610;2024-01-07T12:48:48;7.93;;;6.30;;
10293;SDS011;5192;50.328;7.610;2024-01-07T12:51:17;8.13;;;5.73;;
10293;SDS011;5192;50.328;7.610;2024-01-07T12:53:45;9.17;;;7.07;;
10293;SDS011;5192;50.328;7.610;2024-01-07T12:56:12;7.50;;;6.10;;
10293;SDS011;5192;50.328;7.610;2024-01-07T12:58:43;7.57;;;6.23;;
10293;SDS011;5192;50.328;7.610;2024-01-07T13:01:12;9.40;;;5.97;;
10293;SDS011;5192;50.328;7.610;2024-01-07T13:03:39;8.00;;;5.83;;
10293;SDS011;5192;50.328;7.610;2024-01-07T13:06:08;9.07;;;6.70;;
10293;SDS011;5192;50.328;7.610;2024-01-07T13:08:35;9.50;;;6.80;;
10293;SDS011;5192;50.328;7.610;2024-01-07T13:11:04;8.73;;;6.40;;
10293;SDS011;5192;50.328;7.610;2024-01-07T13:13:31;7.80;;;5.97;;
10293;SDS011;5192;50.328;7.610;2024-01-07T13:16:00;8.83;;;6.17;;
10293;SDS011;5192;50.328;7.610;2024-01-07T13:18:28;9.00;;;6.77;;
10293;SDS011;5192;50.328;7.610;2024-01-07T13:20:55;9.17;;;6.33;;
10293;SDS011;5192;50.328;7.610;2024-01-07T13:23:24;10.23;;;6.37;;
10293;SDS011;5192;50.328;7.610;2024-01-07T13:25:53;8.67;;;5.73;;
10293;SDS011;5192;50.328;7.610;2024-01-07T13:28:20;9.77;;;6.47;;
10293;SDS011;5192;50.328;7.610;2024-01-07T13:30:54;9.57;;;6.87;;
10293;SDS011;5192;50.328;7.610;2024-01-07T13:33:20;8.90;;;5.87;;
10293;SDS011;5192;50.328;7.610;2024-01-07T13:35:47;8.30;;;5.97;;
10293;SDS011;5192;50.328;7.610;2024-01-07T13:38:16;8.03;;;6.00;;
10293;SDS011;5192;50.328;7.610;2024-01-07T13:40:44;9.00;;;6.23;;
10293;SDS011;5192;50.328;7.610;2024-01-07T13:43:11;8.53;;;5.80;;
10293;SDS011;5192;50.328;7.610;2024-01-07T13:45:40;8.60;;;6.07;;
10293;SDS011;5192;50.328;7.610;2024-01-07T13:48:11;8.97;;;5.87;;
10293;SDS011;5192;50.328;7.610;2024-01-07T13:50:40;8.13;;;5.37;;
10293;SDS011;5192;50.328;7.610;2024-01-07T13:53:07;8.20;;;5.53;;
10293;SDS011;5192;50.328;7.610;2024-01-07T13:55:35;7.00;;;5.53;;
10293;SDS011;5192;50.328;7.610;2024-01-07T13:58:02;7.57;;;5.63;;
10293;SDS011;5192;50.328;7.610;2024-01-07T14:00:30;9.23;;;6.13;;
10293;SDS011;5192;50.328;7.610;2024-01-07T14:02:59;7.60;;;5.43;;
10293;SDS011;5192;50.328;7.610;2024-01-07T14:05:26;9.23;;;5.43;;
10293;SDS011;5192;50.328;7.610;2024-01-07T14:07:53;6.40;;;4.83;;
10293;SDS011;5192;50.328;7.610;2024-01-07T14:10:22;6.53;;;4.87;;
10293;SDS011;5192;50.328;7.610;2024-01-07T14:12:49;7.60;;;5.37;;
10293;SDS011;5192;50.328;7.610;2024-01-07T14:15:18;7.03;;;5.47;;
10293;SDS011;5192;50.328;7.610;2024-01-07T14:17:46;8.03;;;5.80;;
10293;SDS011;5192;50.328;7.610;2024-01-07T14:20:15;8.97;;;5.70;;
10293;SDS011;5192;50.328;7.610;2024-01-07T14:22:43;8.57;;;5.37;;
10293;SDS011;5192;50.328;7.610;2024-01-07T14:25:12;7.10;;;4.87;;
10293;SDS011;5192;50.328;7.610;2024-01-07T14:27:43;8.47;;;5.17;;
10293;SDS011;5192;50.328;7.610;2024-01-07T14:30:12;6.87;;;5.30;;
10293;SDS011;5192;50.328;7.610;2024-01-07T14:32:41;7.77;;;4.87;;
10293;SDS011;5192;50.328;7.610;2024-01-07T14:35:13;7.17;;;5.17;;
10293;SDS011;5192;50.328;7.610;2024-01-07T14:37:41;6.23;;;5.03;;
10293;SDS011;5192;50.328;7.610;2024-01-07T14:40:13;8.30;;;5.40;;
10293;SDS011;5192;50.328;7.610;2024-01-07T14:42:41;7.20;;;4.83;;
10293;SDS011;5192;50.328;7.610;2024-01-07T14:45:10;7.43;;;5.50;;
10293;SDS011;5192;50.328;7.610;2024-01-07T14:47:37;7.93;;;4.97;;
10293;SDS011;5192;50.328;7.610;2024-01-07T14:50:09;9.87;;;5.93;;
10293;SDS011;5192;50.328;7.610;2024-01-07T14:52:36;7.60;;;5.47;;
10293;SDS011;5192;50.328;7.610;2024-01-07T14:55:03;6.53;;;5.20;;